createdAt,value
2023-04-26T00:01:38.314Z,8.73
2023-04-26T00:04:05.829Z,8.57
2023-04-26T00:06:33.532Z,9.30
2023-04-26T00:09:00.662Z,8.60
2023-04-26T00:11:27.791Z,8.05
2023-04-26T00:13:55.280Z,7.03
2023-04-26T00:16:22.570Z,10.73
2023-04-26T00:18:50.627Z,10.75
2023-04-26T00:21:18.001Z,13.07
2023-04-26T00:23:45.642Z,9.98
2023-04-26T00:26:12.761Z,7.43
2023-04-26T00:28:39.844Z,11.43
2023-04-26T00:31:07.411Z,9.65
2023-04-26T00:33:34.540Z,9.95
2023-04-26T00:36:01.822Z,9.30
2023-04-26T00:38:28.924Z,9.10
2023-04-26T00:40:56.018Z,7.70
2023-04-26T00:43:23.217Z,8.68
2023-04-26T00:45:50.478Z,11.60
2023-04-26T00:48:18.576Z,9.85
2023-04-26T00:50:47.694Z,7.28
2023-04-26T00:53:15.741Z,10.00
2023-04-26T00:55:43.124Z,9.13
2023-04-26T00:58:10.276Z,7.00
2023-04-26T01:00:37.421Z,9.68
2023-04-26T01:03:04.886Z,8.77
2023-04-26T01:05:32.152Z,6.90
2023-04-26T01:08:02.335Z,9.10
2023-04-26T01:10:29.626Z,10.50
2023-04-26T01:12:57.967Z,9.48
2023-04-26T01:15:25.688Z,11.80
2023-04-26T01:17:52.803Z,10.93
2023-04-26T01:20:20.225Z,8.80
2023-04-26T01:22:47.334Z,8.13
2023-04-26T01:25:14.508Z,7.75
2023-04-26T01:27:41.878Z,9.02
2023-04-26T01:30:09.784Z,8.88
2023-04-26T01:32:37.318Z,11.52
2023-04-26T01:35:05.718Z,8.65
2023-04-26T01:37:32.880Z,11.00
2023-04-26T01:40:00.003Z,11.27
2023-04-26T01:42:27.283Z,11.18
2023-04-26T01:44:54.653Z,11.82
2023-04-26T01:47:21.869Z,12.27
2023-04-26T01:49:49.043Z,10.48
2023-04-26T01:52:16.768Z,9.88
2023-04-26T01:54:44.075Z,11.65
2023-04-26T01:57:11.339Z,9.73
2023-04-26T01:59:38.488Z,11.20
2023-04-26T02:02:05.780Z,10.75
2023-04-26T02:04:33.281Z,9.60
2023-04-26T02:07:00.617Z,11.63
2023-04-26T02:09:27.888Z,9.95
2023-04-26T02:11:55.034Z,9.45
2023-04-26T02:14:22.300Z,11.90
2023-04-26T02:16:49.456Z,10.48
2023-04-26T02:19:16.659Z,10.60
2023-04-26T02:21:53.994Z,10.07
2023-04-26T02:24:22.115Z,10.05
2023-04-26T02:26:49.357Z,9.95
2023-04-26T02:29:16.714Z,10.85
2023-04-26T02:31:43.884Z,9.45
2023-04-26T02:34:11.476Z,10.85
2023-04-26T02:36:38.605Z,10.45
2023-04-26T02:39:05.831Z,16.55
2023-04-26T02:41:33.634Z,10.88
2023-04-26T02:44:00.816Z,14.35
2023-04-26T02:46:28.292Z,14.07
2023-04-26T02:48:55.680Z,10.55
2023-04-26T02:51:23.111Z,8.43
2023-04-26T02:53:50.238Z,10.57
2023-04-26T02:56:17.385Z,10.73
2023-04-26T02:58:44.882Z,11.68
2023-04-26T03:01:13.279Z,12.73
2023-04-26T03:03:40.596Z,9.82
2023-04-26T03:06:08.351Z,11.43
2023-04-26T03:08:36.856Z,12.20
2023-04-26T03:11:04.424Z,13.82
2023-04-26T03:13:32.014Z,12.02
2023-04-26T03:15:59.357Z,9.88
2023-04-26T03:18:26.508Z,12.50
2023-04-26T03:20:53.691Z,11.32
2023-04-26T03:23:24.405Z,12.52
2023-04-26T03:25:52.024Z,12.45
2023-04-26T03:28:19.279Z,14.18
2023-04-26T03:30:46.544Z,11.68
2023-04-26T03:33:13.857Z,13.05
2023-04-26T03:35:41.316Z,11.88
2023-04-26T03:38:08.407Z,13.00
2023-04-26T03:40:35.653Z,11.07
2023-04-26T03:43:03.021Z,13.18
2023-04-26T03:45:30.243Z,12.98
2023-04-26T03:47:57.489Z,11.32
2023-04-26T03:50:24.955Z,17.63
2023-04-26T03:52:52.159Z,9.90
2023-04-26T03:55:19.363Z,11.27
2023-04-26T03:57:46.457Z,15.43
2023-04-26T04:00:14.488Z,12.07
2023-04-26T04:02:42.279Z,14.30
2023-04-26T04:05:10.154Z,13.25
2023-04-26T04:07:37.511Z,12.57
2023-04-26T04:10:04.956Z,17.70
2023-04-26T04:12:33.808Z,13.90
2023-04-26T04:15:00.958Z,11.95
2023-04-26T04:17:28.181Z,11.55
2023-04-26T04:19:55.554Z,14.70
2023-04-26T04:22:22.742Z,13.07
2023-04-26T04:24:49.968Z,13.82
2023-04-26T04:27:17.067Z,11.68
2023-04-26T04:29:44.244Z,13.10
2023-04-26T04:32:13.751Z,12.05
2023-04-26T04:34:41.707Z,11.85
2023-04-26T04:37:09.748Z,16.27
2023-04-26T04:39:36.910Z,17.60
2023-04-26T04:42:04.407Z,13.40
2023-04-26T04:44:31.594Z,10.55
2023-04-26T04:46:58.841Z,11.70
2023-04-26T04:49:26.186Z,11.07
2023-04-26T04:51:53.593Z,12.23
2023-04-26T04:54:20.835Z,12.95
2023-04-26T04:56:48.191Z,12.50
2023-04-26T04:59:15.533Z,12.43
2023-04-26T05:01:42.830Z,12.18
2023-04-26T05:04:10.206Z,11.43
2023-04-26T05:06:37.530Z,12.63
2023-04-26T05:09:05.924Z,13.57
2023-04-26T05:11:33.269Z,13.38
2023-04-26T05:14:00.632Z,12.48
2023-04-26T05:16:27.976Z,13.80
2023-04-26T05:18:55.171Z,12.27
2023-04-26T05:21:23.588Z,13.18
2023-04-26T05:23:51.119Z,13.50
2023-04-26T05:26:18.691Z,12.93
2023-04-26T05:28:45.941Z,11.85
2023-04-26T05:31:13.226Z,11.73
2023-04-26T05:33:40.428Z,13.85
2023-04-26T05:36:09.264Z,11.95
2023-04-26T05:38:40.212Z,12.85
2023-04-26T05:41:07.569Z,11.18
2023-04-26T05:43:35.394Z,15.50
2023-04-26T05:46:02.712Z,13.88
2023-04-26T05:48:29.983Z,12.93
2023-04-26T05:50:57.189Z,11.60
2023-04-26T05:53:24.374Z,11.82
2023-04-26T05:55:51.700Z,12.13
2023-04-26T05:58:18.899Z,13.77
2023-04-26T06:00:46.097Z,14.43
2023-04-26T06:03:13.472Z,13.45
2023-04-26T06:05:41.444Z,11.68
2023-04-26T06:08:08.825Z,14.13
2023-04-26T06:10:38.880Z,15.88
2023-04-26T06:13:06.277Z,14.82
2023-04-26T06:15:34.065Z,17.33
2023-04-26T06:18:01.295Z,14.65
2023-04-26T06:20:28.521Z,15.23
2023-04-26T06:22:55.697Z,12.23
2023-04-26T06:25:23.214Z,12.57
2023-04-26T06:27:50.388Z,12.52
2023-04-26T06:30:17.594Z,10.98
2023-04-26T06:32:44.799Z,10.85
2023-04-26T06:35:12.038Z,8.38
2023-04-26T06:37:39.988Z,9.55
2023-04-26T06:40:07.489Z,11.18
2023-04-26T06:42:34.733Z,10.95
2023-04-26T06:45:02.245Z,9.43
2023-04-26T06:47:29.725Z,8.52
2023-04-26T06:49:57.069Z,8.77
2023-04-26T06:52:24.294Z,11.32
2023-04-26T06:54:57.034Z,10.80
2023-04-26T06:57:25.074Z,9.00
2023-04-26T06:59:52.294Z,10.02
2023-04-26T07:02:19.601Z,9.95
2023-04-26T07:04:47.345Z,11.57
2023-04-26T07:07:16.569Z,8.48
2023-04-26T07:09:44.016Z,9.93
2023-04-26T07:12:14.815Z,11.57
2023-04-26T07:14:43.453Z,11.43
2023-04-26T07:17:11.758Z,10.43
2023-04-26T07:19:39.114Z,10.95
2023-04-26T07:22:06.450Z,9.70
2023-04-26T07:24:33.735Z,9.25
2023-04-26T07:27:01.220Z,7.80
2023-04-26T07:29:28.640Z,8.85
2023-04-26T07:31:57.061Z,5.50
2023-04-26T07:34:24.328Z,5.20
2023-04-26T07:36:51.802Z,7.40
2023-04-26T07:39:18.993Z,9.00
2023-04-26T07:41:48.317Z,7.82
2023-04-26T07:44:15.774Z,11.82
2023-04-26T07:46:42.963Z,7.45
2023-04-26T07:49:10.345Z,8.88
2023-04-26T07:51:37.494Z,11.70
2023-04-26T07:54:04.759Z,8.23
2023-04-26T07:56:31.945Z,8.02
2023-04-26T07:58:59.233Z,7.45
2023-04-26T08:01:26.996Z,5.78
2023-04-26T08:03:55.738Z,6.18
2023-04-26T08:06:23.288Z,4.60
2023-04-26T08:08:53.041Z,9.68
2023-04-26T08:11:20.217Z,7.28
2023-04-26T08:13:47.540Z,6.28
2023-04-26T08:16:14.718Z,8.18
2023-04-26T08:18:43.441Z,8.77
2023-04-26T08:21:12.721Z,6.35
2023-04-26T08:23:39.989Z,7.90
2023-04-26T08:26:07.348Z,10.23
2023-04-26T08:28:35.836Z,7.35
2023-04-26T08:31:03.317Z,6.80
2023-04-26T08:33:30.660Z,8.93
2023-04-26T08:36:01.200Z,4.80
2023-04-26T08:38:30.207Z,8.63
2023-04-26T08:41:01.929Z,9.45
2023-04-26T08:43:29.777Z,9.80
2023-04-26T08:45:58.560Z,6.65
2023-04-26T08:50:54.469Z,5.25
2023-04-26T08:53:21.696Z,4.15
2023-04-26T08:55:52.117Z,8.25
2023-04-26T08:58:19.650Z,5.95
2023-04-26T09:00:46.924Z,4.05
2023-04-26T09:03:14.518Z,5.85
2023-04-26T09:05:46.250Z,5.28
2023-04-26T09:08:18.319Z,2.83
2023-04-26T09:10:46.360Z,7.25
2023-04-26T09:13:14.539Z,5.82
2023-04-26T09:15:42.291Z,5.45
2023-04-26T09:18:22.384Z,3.97
2023-04-26T09:21:08.565Z,8.73
2023-04-26T09:23:35.925Z,5.78
2023-04-26T09:26:22.602Z,6.75
2023-04-26T09:28:50.730Z,4.47
2023-04-26T09:31:39.225Z,5.00
2023-04-26T09:34:06.689Z,5.05
2023-04-26T09:36:33.825Z,7.13
2023-04-26T09:39:01.162Z,5.90
2023-04-26T09:41:43.878Z,5.03
2023-04-26T09:44:23.853Z,5.75
2023-04-26T09:47:00.791Z,6.40
2023-04-26T09:49:28.730Z,3.50
2023-04-26T09:52:02.987Z,4.70
2023-04-26T09:54:44.239Z,3.58
2023-04-26T09:57:13.105Z,5.90
2023-04-26T09:59:44.486Z,4.07
2023-04-26T10:02:15.219Z,2.65
2023-04-26T10:04:44.626Z,4.68
2023-04-26T10:07:13.029Z,4.47
2023-04-26T10:09:40.807Z,6.80
2023-04-26T10:12:08.137Z,4.13
2023-04-26T10:14:35.763Z,5.47
2023-04-26T10:17:04.683Z,5.90
2023-04-26T10:19:32.927Z,5.55
2023-04-26T10:22:11.493Z,5.93
2023-04-26T10:24:38.740Z,6.18
2023-04-26T10:27:05.918Z,6.35
2023-04-26T10:29:56.510Z,3.13
2023-04-26T10:32:24.485Z,4.40
2023-04-26T10:35:12.350Z,5.00
2023-04-26T10:37:57.970Z,7.25
2023-04-26T10:40:26.179Z,7.82
2023-04-26T10:43:16.833Z,5.70
2023-04-26T10:45:45.048Z,5.10
2023-04-26T10:48:17.472Z,5.13
2023-04-26T10:51:05.454Z,7.57
2023-04-26T10:53:36.471Z,5.95
2023-04-26T10:56:03.880Z,5.85
2023-04-26T10:58:32.835Z,5.28
2023-04-26T11:01:06.522Z,8.93
2023-04-26T11:03:34.123Z,7.45
2023-04-26T11:06:01.665Z,5.80
2023-04-26T11:08:30.672Z,3.65
2023-04-26T11:11:03.859Z,6.50
2023-04-26T11:13:34.844Z,4.05
2023-04-26T11:16:04.236Z,5.65
2023-04-26T11:18:32.345Z,5.07
2023-04-26T11:20:59.705Z,8.20
2023-04-26T11:23:28.767Z,3.72
2023-04-26T11:26:03.501Z,8.13
2023-04-26T11:28:33.903Z,6.22
2023-04-26T11:31:02.115Z,6.40
2023-04-26T11:33:29.547Z,5.78
2023-04-26T11:35:59.344Z,6.32
2023-04-26T11:38:27.085Z,5.45
2023-04-26T11:40:55.896Z,7.65
2023-04-26T11:45:50.244Z,3.70
2023-04-26T11:48:17.644Z,4.60
2023-04-26T11:50:44.991Z,5.80
2023-04-26T11:53:12.613Z,6.82
2023-04-26T11:55:40.630Z,6.20
2023-04-26T11:58:11.647Z,6.18
2023-04-26T12:00:38.913Z,4.45
2023-04-26T12:03:11.296Z,4.45
2023-04-26T12:05:44.533Z,3.45
2023-04-26T12:08:12.573Z,4.47
2023-04-26T12:10:39.801Z,6.28
2023-04-26T12:13:07.011Z,5.65
2023-04-26T12:15:34.953Z,6.93
2023-04-26T12:18:08.807Z,7.75
2023-04-26T12:20:37.011Z,4.05
2023-04-26T12:23:05.755Z,6.95
2023-04-26T12:25:33.898Z,4.53
2023-04-26T12:28:01.735Z,5.30
2023-04-26T12:30:29.690Z,8.02
2023-04-26T12:33:05.688Z,6.35
2023-04-26T12:35:36.865Z,3.85
2023-04-26T12:38:04.212Z,4.28
2023-04-26T12:40:31.726Z,5.10
2023-04-26T12:42:59.583Z,6.35
2023-04-26T12:45:29.900Z,4.30
2023-04-26T12:47:57.309Z,4.75
2023-04-26T12:50:24.778Z,5.13
2023-04-26T12:52:52.066Z,7.03
2023-04-26T12:55:19.629Z,5.32
2023-04-26T12:57:47.091Z,5.55
2023-04-26T13:00:17.970Z,4.25
2023-04-26T13:02:46.692Z,5.07
2023-04-26T13:05:14.565Z,7.97
2023-04-26T13:07:43.535Z,8.10
2023-04-26T13:10:12.904Z,6.03
2023-04-26T13:13:20.403Z,5.28
2023-04-26T13:19:17.912Z,4.38
2023-04-26T13:21:45.247Z,7.90
2023-04-26T13:24:12.724Z,4.32
2023-04-26T13:26:40.125Z,5.22
2023-04-26T13:29:07.326Z,5.88
2023-04-26T13:31:34.782Z,4.68
2023-04-26T13:34:03.074Z,8.98
2023-04-26T13:36:30.305Z,4.80
2023-04-26T13:38:57.472Z,7.13
2023-04-26T13:41:24.932Z,2.88
2023-04-26T13:43:52.119Z,4.90
2023-04-26T13:46:19.356Z,6.85
2023-04-26T13:48:46.649Z,6.50
2023-04-26T13:51:13.890Z,5.47
2023-04-26T13:53:41.041Z,3.05
2023-04-26T13:56:09.498Z,3.92
2023-04-26T13:58:36.732Z,4.75
2023-04-26T14:01:04.424Z,4.28
2023-04-26T14:03:32.575Z,8.15
2023-04-26T14:05:59.837Z,7.40
2023-04-26T14:08:27.493Z,5.40
2023-04-26T14:10:54.689Z,5.90
2023-04-26T14:13:22.060Z,4.68
2023-04-26T14:15:49.403Z,4.97
2023-04-26T14:18:17.600Z,3.42
2023-04-26T14:20:49.555Z,5.63
2023-04-26T14:23:16.952Z,3.20
2023-04-26T14:25:44.214Z,7.35
2023-04-26T14:28:12.526Z,1.85
2023-04-26T14:30:39.731Z,4.88
2023-04-26T14:33:06.965Z,4.28
2023-04-26T14:35:34.180Z,8.23
2023-04-26T14:38:01.793Z,5.70
2023-04-26T14:40:29.180Z,3.28
2023-04-26T14:42:56.468Z,3.35
2023-04-26T14:45:27.863Z,4.25
2023-04-26T14:48:01.900Z,6.30
2023-04-26T14:50:30.308Z,4.82
2023-04-26T14:52:57.583Z,7.30
2023-04-26T14:55:27.022Z,5.38
2023-04-26T14:57:54.645Z,2.58
2023-04-26T15:00:22.916Z,4.63
2023-04-26T15:02:50.536Z,4.75
2023-04-26T15:05:17.901Z,4.75
2023-04-26T15:07:45.160Z,6.72
2023-04-26T15:10:12.330Z,6.93
2023-04-26T15:12:39.873Z,4.75
2023-04-26T15:15:07.592Z,6.80
2023-04-26T15:17:35.016Z,5.75
2023-04-26T15:20:02.455Z,4.93
2023-04-26T15:22:29.679Z,5.90
2023-04-26T15:24:56.989Z,4.03
2023-04-26T15:27:25.175Z,4.15
2023-04-26T15:29:52.372Z,2.97
2023-04-26T15:32:19.521Z,3.97
2023-04-26T15:34:46.738Z,3.45
2023-04-26T15:37:14.027Z,6.32
2023-04-26T15:39:43.584Z,4.55
2023-04-26T15:42:11.241Z,5.57
2023-04-26T15:44:38.372Z,5.43
2023-04-26T15:47:05.964Z,5.28
2023-04-26T15:49:33.118Z,5.20
2023-04-26T15:52:00.536Z,6.82
2023-04-26T15:54:27.730Z,5.45
2023-04-26T15:56:55.499Z,3.50
2023-04-26T15:59:24.002Z,13.35
2023-04-26T16:01:51.963Z,10.50
2023-04-26T16:07:00.522Z,5.40
2023-04-26T16:09:27.952Z,6.45
2023-04-26T16:11:55.355Z,4.47
2023-04-26T16:14:25.208Z,5.05
2023-04-26T16:16:52.585Z,4.63
2023-04-26T16:19:19.690Z,4.90
2023-04-26T16:21:47.812Z,2.25
2023-04-26T16:24:15.673Z,3.13
2023-04-26T16:26:43.378Z,3.17
2023-04-26T16:29:10.870Z,2.72
2023-04-26T16:31:38.159Z,11.57
2023-04-26T16:34:05.392Z,3.17
2023-04-26T16:36:33.094Z,4.78
2023-04-26T16:39:00.808Z,4.95
2023-04-26T16:41:37.426Z,10.10
2023-04-26T16:44:04.773Z,6.25
2023-04-26T16:46:34.637Z,6.25
2023-04-26T16:49:03.163Z,7.63
2023-04-26T16:51:30.349Z,8.35
2023-04-26T16:54:00.547Z,12.27
2023-04-26T16:56:28.123Z,5.35
2023-04-26T16:58:58.346Z,21.85
2023-04-26T17:04:19.387Z,7.65
2023-04-26T17:09:28.713Z,2.42
2023-04-26T17:11:56.242Z,7.25
2023-04-26T17:17:05.298Z,4.88
2023-04-26T17:19:33.009Z,7.45
2023-04-26T17:24:42.223Z,8.85
2023-04-26T17:27:09.851Z,13.32
2023-04-26T17:29:37.324Z,12.55
2023-04-26T17:32:05.498Z,6.60
2023-04-26T17:34:33.238Z,22.23
2023-04-26T17:42:55.606Z,4.68
2023-04-26T17:45:23.626Z,10.70
2023-04-26T17:47:50.998Z,7.82
2023-04-26T17:50:27.839Z,7.93
2023-04-26T17:52:55.054Z,8.05
2023-04-26T17:58:51.303Z,15.70
2023-04-26T18:01:20.189Z,11.70
2023-04-26T18:06:17.955Z,9.02
2023-04-26T18:08:48.031Z,7.13
2023-04-26T18:11:16.339Z,6.28
2023-04-26T18:13:53.956Z,8.60
2023-04-26T18:16:21.629Z,5.13
2023-04-26T18:18:48.916Z,5.13
2023-04-26T18:21:17.166Z,7.68
2023-04-26T18:23:47.743Z,3.80
2023-04-26T18:26:14.967Z,12.48
2023-04-26T18:28:44.975Z,6.53
2023-04-26T18:31:12.228Z,23.52
2023-04-26T18:33:39.530Z,15.57
2023-04-26T18:36:06.855Z,18.67
2023-04-26T18:38:34.297Z,7.82
2023-04-26T18:41:04.445Z,8.38
2023-04-26T18:43:31.658Z,8.18
2023-04-26T18:45:59.083Z,9.25
2023-04-26T18:48:26.358Z,8.63
2023-04-26T18:50:54.172Z,9.32
2023-04-26T18:53:22.485Z,5.40
2023-04-26T18:55:52.148Z,7.15
2023-04-26T18:58:19.423Z,8.13
2023-04-26T19:00:49.704Z,7.28
2023-04-26T19:03:17.395Z,7.05
2023-04-26T19:06:03.872Z,9.45
2023-04-26T19:08:31.036Z,11.20
2023-04-26T19:10:58.324Z,9.40
2023-04-26T19:13:25.903Z,7.78
2023-04-26T19:15:53.246Z,10.48
2023-04-26T19:18:20.520Z,21.30
2023-04-26T19:20:48.105Z,9.80
2023-04-26T19:23:15.485Z,8.68
2023-04-26T19:25:42.847Z,7.07
2023-04-26T19:28:10.021Z,9.07
2023-04-26T19:30:37.549Z,13.35
2023-04-26T19:33:04.846Z,10.57
2023-04-26T19:35:32.089Z,10.75
2023-04-26T19:37:59.426Z,6.43
2023-04-26T19:40:26.582Z,12.00
2023-04-26T19:42:53.796Z,4.90
2023-04-26T19:45:21.052Z,5.57
2023-04-26T19:47:48.570Z,5.53
2023-04-26T19:50:16.043Z,6.53
2023-04-26T19:52:43.224Z,8.73
2023-04-26T19:55:10.487Z,12.00
2023-04-26T19:57:37.641Z,4.72
2023-04-26T20:00:07.488Z,9.75
2023-04-26T20:02:35.048Z,6.40
2023-04-26T20:05:02.222Z,9.13
2023-04-26T20:07:29.477Z,13.27
2023-04-26T20:09:56.694Z,10.60
2023-04-26T20:12:24.329Z,7.93
2023-04-26T20:14:51.606Z,8.98
2023-04-26T20:17:18.820Z,7.88
2023-04-26T20:19:46.040Z,9.25
2023-04-26T20:22:13.176Z,6.85
2023-04-26T20:24:40.409Z,8.85
2023-04-26T20:27:07.729Z,9.30
2023-04-26T20:29:34.881Z,7.03
2023-04-26T20:32:02.147Z,9.93
2023-04-26T20:34:29.333Z,9.55
2023-04-26T20:36:57.162Z,10.45
2023-04-26T20:39:24.329Z,10.52
2023-04-26T20:41:52.122Z,11.52
2023-04-26T20:44:19.604Z,8.98
2023-04-26T20:46:46.835Z,6.80
2023-04-26T20:49:14.401Z,11.20
2023-04-26T20:51:41.692Z,10.80
2023-04-26T20:54:08.900Z,13.57
2023-04-26T20:56:36.670Z,8.90
2023-04-26T20:59:03.834Z,7.65
2023-04-26T21:01:31.196Z,12.00
2023-04-26T21:04:01.107Z,10.88
2023-04-26T21:06:28.557Z,8.77
2023-04-26T21:08:55.921Z,11.93
2023-04-26T21:11:23.041Z,7.22
2023-04-26T21:13:50.584Z,6.85
2023-04-26T21:16:17.776Z,9.07
2023-04-26T21:18:44.986Z,8.38
2023-04-26T21:21:12.157Z,9.02
2023-04-26T21:23:39.259Z,9.00
2023-04-26T21:26:06.508Z,9.43
2023-04-26T21:28:33.880Z,9.57
2023-04-26T21:31:07.530Z,9.27
2023-04-26T21:33:35.190Z,7.45
2023-04-26T21:36:02.374Z,8.68
2023-04-26T21:38:29.600Z,9.32
2023-04-26T21:40:56.805Z,9.93
2023-04-26T21:43:25.063Z,10.68
2023-04-26T21:45:53.188Z,7.45
2023-04-26T21:48:20.519Z,8.75
2023-04-26T21:50:50.942Z,8.50
2023-04-26T21:53:18.383Z,8.48
2023-04-26T21:55:51.222Z,12.00
2023-04-26T21:58:18.568Z,9.77
2023-04-26T22:00:46.619Z,11.90
2023-04-26T22:03:14.376Z,9.27
2023-04-26T22:05:41.787Z,10.68
2023-04-26T22:08:09.188Z,15.68
2023-04-26T22:10:36.448Z,15.00
2023-04-26T22:13:03.693Z,14.23
2023-04-26T22:15:30.897Z,9.75
2023-04-26T22:17:58.226Z,10.57
2023-04-26T22:20:26.747Z,10.68
2023-04-26T22:22:54.095Z,9.15
2023-04-26T22:25:21.388Z,12.40
2023-04-26T22:27:48.969Z,10.55
2023-04-26T22:30:25.430Z,10.32
2023-04-26T22:32:55.024Z,8.43
2023-04-26T22:35:22.818Z,5.80
2023-04-26T22:37:50.061Z,7.63
2023-04-26T22:40:17.757Z,7.97
2023-04-26T22:42:45.460Z,6.45
2023-04-26T22:45:13.192Z,6.55
2023-04-26T22:47:41.053Z,8.68
2023-04-26T22:50:08.938Z,8.45
2023-04-26T22:52:36.775Z,8.88
2023-04-26T22:55:04.013Z,6.10
2023-04-26T22:57:31.655Z,5.95
2023-04-26T22:59:59.040Z,7.15
2023-04-26T23:02:26.418Z,6.15
2023-04-26T23:04:56.819Z,11.60
2023-04-26T23:07:24.155Z,7.57
2023-04-26T23:09:51.601Z,10.75
2023-04-26T23:12:23.677Z,9.55
2023-04-26T23:14:50.961Z,9.80
2023-04-26T23:17:20.439Z,15.05
2023-04-26T23:19:47.805Z,8.80
2023-04-26T23:22:15.836Z,9.52
2023-04-26T23:27:23.274Z,7.88
2023-04-26T23:29:51.622Z,7.97
2023-04-26T23:32:18.782Z,5.07
2023-04-26T23:34:45.927Z,6.45
2023-04-26T23:37:13.072Z,6.97
2023-04-26T23:39:40.249Z,8.75
2023-04-26T23:42:07.411Z,6.57
2023-04-26T23:44:34.661Z,9.48
2023-04-26T23:47:01.793Z,9.35
2023-04-26T23:49:29.025Z,9.45
2023-04-26T23:51:56.206Z,8.98
2023-04-26T23:54:23.462Z,6.60
2023-04-26T23:56:50.618Z,7.22
2023-04-26T23:59:17.741Z,6.95
